This is the latest recevied weather packets stored in our database for station/object PE1BMM-13. If no packets are shown the sender has not sent any weather packets the latest 10 day(s).
| Time | Temp. | Humidity | Pressure | Rain* | Wind** | Luminosity | Snow |
|---|---|---|---|---|---|---|---|
| 1778151024 | 15.56° C | 57% | 1017 hPa | 0 mm | - | - | - |
| 1778142610 | 13.89° C | 64% | 1016.4 hPa | 0 mm | - | - | - |
| 1778139860 | 12.78° C | 72% | 1016.3 hPa | 0 mm | - | - | - |
| 1778139718 | 13.33° C | 70% | 1016.3 hPa | 0 mm | - | - | - |
| 1778137208 | 11.67° C | 78% | 1016.2 hPa | 0 mm | - | - | - |
| 1778125200 | 5.56° C | 91% | 1014.8 hPa | 0 mm | - | - | - |
| 1778120994 | 6.11° C | 90% | 1014.6 hPa | 0 mm | - | - | - |
| 1778120395 | 6.67° C | 90% | 1014.5 hPa | 0 mm | - | - | - |
| 1778109573 | 7.78° C | 86% | 1014.2 hPa | 0 mm | - | - | - |
| 1778108975 | 7.78° C | 86% | 1014.2 hPa | 0 mm | - | - | - |
| 1778096369 | 10.56° C | 78% | 1012.9 hPa | 0 mm | - | - | - |
| 1778095164 | 11.11° C | 76% | 1012.6 hPa | 0 mm | - | - | - |
| 1778091565 | 12.78° C | 68% | 1012 hPa | 0 mm | - | - | - |
| 1778084958 | 13.89° C | 65% | 1011 hPa | 0 mm | - | - | - |
| 1778082553 | 15° C | 65% | 1011 hPa | 0 mm | - | - | - |
| 1778079248 | 14.44° C | 67% | 1010.9 hPa | 0 mm | - | - | - |
| 1778077153 | 14.44° C | 66% | 1010.6 hPa | 0 mm | - | - | - |
| 1778074752 | 14.44° C | 63% | 1010.7 hPa | 0 mm | - | - | - |
| 1778068746 | 14.44° C | 68% | 1010.3 hPa | 0 mm | - | - | - |
| 1778068151 | 14.44° C | 66% | 1010.3 hPa | 0 mm | - | - | - |
| 1778067547 | 14.44° C | 67% | 1010.3 hPa | 0 mm | - | - | - |
| 1778063948 | 14.44° C | 66% | 1010.3 hPa | 0 mm | - | - | - |
| 1778060340 | 12.78° C | 75% | 1010.3 hPa | 0 mm | - | - | - |
| 1778059140 | 12.78° C | 74% | 1010.2 hPa | 0 mm | - | - | - |
| 1778054934 | 13.33° C | 76% | 1009.9 hPa | 0 mm | - | - | - |
* Rain latest hour (hover to see other rain measurements)
** Current wind speed in m/s (hover to see current wind gust speed)